createdAt,value
2017-10-24T00:00:29.680Z,94.17
2017-10-24T00:01:10.282Z,94.46
2017-10-24T00:01:50.908Z,94.17
2017-10-24T00:02:31.445Z,93.31
2017-10-24T00:03:12.017Z,94.17
2017-10-24T00:03:52.547Z,93.79
2017-10-24T00:04:33.045Z,93.88
2017-10-24T00:05:13.625Z,94.07
2017-10-24T00:05:54.126Z,94.07
2017-10-24T00:06:34.710Z,93.6
2017-10-24T00:07:15.229Z,93.69
2017-10-24T00:07:55.809Z,94.07
2017-10-24T00:08:36.361Z,93.79
2017-10-24T00:09:16.886Z,94.26
2017-10-24T00:09:57.476Z,94.36
2017-10-24T00:10:37.953Z,93.88
2017-10-24T00:11:18.564Z,94.46
2017-10-24T00:11:59.117Z,94.46
2017-10-24T00:12:39.731Z,94.46
2017-10-24T00:13:20.197Z,94.07
2017-10-24T00:14:00.841Z,93.88
2017-10-24T00:14:41.407Z,94.17
2017-10-24T00:15:21.907Z,94.46
2017-10-24T00:16:02.422Z,94.84
2017-10-24T00:16:42.968Z,94.65
2017-10-24T00:17:23.646Z,94.46
2017-10-24T00:18:04.179Z,93.88
2017-10-24T00:18:44.763Z,93.69
2017-10-24T00:19:25.403Z,93.88
2017-10-24T00:20:05.863Z,94.36
2017-10-24T00:20:46.418Z,93.98
2017-10-24T00:21:26.936Z,94.07
2017-10-24T00:22:07.506Z,93.98
2017-10-24T00:22:48.069Z,94.17
2017-10-24T00:23:28.640Z,93.4
2017-10-24T00:24:09.177Z,93.4
2017-10-24T00:24:49.716Z,93.98
2017-10-24T00:25:30.286Z,93.98
2017-10-24T00:26:10.720Z,93.88
2017-10-24T00:26:51.309Z,94.46
2017-10-24T00:27:31.835Z,93.6
2017-10-24T00:28:12.363Z,94.07
2017-10-24T00:28:52.894Z,93.88
2017-10-24T00:29:33.443Z,93.98
2017-10-24T00:30:13.944Z,93.79
2017-10-24T00:30:54.546Z,93.4
2017-10-24T00:31:35.088Z,93.69
2017-10-24T00:32:15.576Z,94.17
2017-10-24T00:32:56.119Z,93.4
2017-10-24T00:33:36.669Z,93.31
2017-10-24T00:34:17.158Z,93.88
2017-10-24T00:34:57.747Z,94.07
2017-10-24T00:35:38.258Z,94.07
2017-10-24T00:36:18.819Z,93.79
2017-10-24T00:36:59.326Z,93.69
2017-10-24T00:37:39.846Z,93.4
2017-10-24T00:38:20.381Z,93.6
2017-10-24T00:39:00.901Z,93.5
2017-10-24T00:39:41.441Z,93.12
2017-10-24T00:40:21.969Z,93.21
2017-10-24T00:41:02.511Z,93.12
2017-10-24T00:41:43.027Z,93.5
2017-10-24T00:42:23.559Z,93.5
2017-10-24T00:43:04.085Z,92.93
2017-10-24T00:43:44.642Z,93.02
2017-10-24T00:44:25.114Z,93.6
2017-10-24T00:45:05.685Z,93.88
2017-10-24T00:45:46.255Z,93.12
2017-10-24T00:46:26.738Z,93.88
2017-10-24T00:47:07.286Z,93.02
2017-10-24T00:47:47.852Z,93.12
2017-10-24T00:48:29.336Z,93.12
2017-10-24T00:49:09.910Z,93.5
2017-10-24T00:49:50.502Z,93.4
2017-10-24T00:50:31.009Z,93.26
2017-10-24T00:51:11.624Z,93.26
2017-10-24T00:51:52.149Z,92.88
2017-10-24T00:52:32.698Z,92.83
2017-10-24T00:53:13.248Z,92.97
2017-10-24T00:53:53.762Z,92.93
2017-10-24T00:54:34.254Z,93.16
2017-10-24T00:55:14.776Z,92.88
2017-10-24T00:55:55.295Z,92.88
2017-10-24T00:56:35.860Z,92.59
2017-10-24T00:57:16.410Z,92.54
2017-10-24T00:57:56.959Z,92.25
2017-10-24T00:58:37.464Z,92.74
2017-10-24T00:59:17.996Z,92.93
2017-10-24T00:59:58.575Z,92.83
2017-10-24T01:00:39.070Z,92.93
2017-10-24T01:01:19.663Z,92.83
2017-10-24T01:02:00.169Z,92.93
2017-10-24T01:02:40.698Z,92.93
2017-10-24T01:03:21.226Z,93.31
2017-10-24T01:04:01.770Z,92.74
2017-10-24T01:04:42.326Z,93.12
2017-10-24T01:05:22.877Z,93.4
2017-10-24T01:06:03.331Z,93.4
2017-10-24T01:06:43.937Z,92.83
2017-10-24T01:07:24.443Z,93.6
2017-10-24T01:08:04.977Z,93.21
2017-10-24T01:08:45.510Z,92.74
2017-10-24T01:09:26.080Z,93.4
2017-10-24T01:10:06.638Z,93.12
2017-10-24T01:10:47.157Z,93.5
2017-10-24T01:11:27.966Z,93.69
2017-10-24T01:12:08.487Z,93.12
2017-10-24T01:12:49.010Z,93.21
2017-10-24T01:13:29.510Z,92.83
2017-10-24T01:14:10.079Z,93.4
2017-10-24T01:14:50.592Z,93.21
2017-10-24T01:15:31.121Z,93.5
2017-10-24T01:16:11.623Z,93.88
2017-10-24T01:16:52.187Z,92.78
2017-10-24T01:17:32.819Z,92.74
2017-10-24T01:18:13.323Z,92.93
2017-10-24T01:18:53.853Z,93.31
2017-10-24T01:19:34.429Z,93.88
2017-10-24T01:20:14.908Z,93.4
2017-10-24T01:20:55.549Z,92.74
2017-10-24T01:21:36.045Z,93.21
2017-10-24T01:22:16.568Z,93.21
2017-10-24T01:22:57.081Z,93.4
2017-10-24T01:23:37.653Z,93.21
2017-10-24T01:24:18.219Z,92.97
2017-10-24T01:24:58.742Z,92.97
2017-10-24T01:25:39.247Z,93.07
2017-10-24T01:26:19.781Z,92.69
2017-10-24T01:27:00.344Z,92.3
2017-10-24T01:27:40.849Z,92.4
2017-10-24T01:28:21.418Z,92.45
2017-10-24T01:29:02.050Z,93.12
2017-10-24T01:29:42.538Z,92.74
2017-10-24T01:30:23.108Z,92.74
2017-10-24T01:31:03.640Z,92.83
2017-10-24T01:31:44.158Z,93.12
2017-10-24T01:32:24.686Z,93.02
2017-10-24T01:33:05.211Z,92.4
2017-10-24T01:33:45.704Z,92.88
2017-10-24T01:34:26.296Z,93.21
2017-10-24T01:35:06.773Z,93.12
2017-10-24T01:35:47.309Z,92.74
2017-10-24T01:36:27.837Z,92.83
2017-10-24T01:37:08.365Z,92.93
2017-10-24T01:37:48.885Z,93.4
2017-10-24T01:38:29.456Z,93.5
2017-10-24T01:39:09.989Z,93.5
2017-10-24T01:39:50.552Z,93.5
2017-10-24T01:40:31.089Z,93.4
2017-10-24T01:41:11.599Z,93.98
2017-10-24T01:41:52.142Z,93.5
2017-10-24T01:42:32.690Z,93.88
2017-10-24T01:43:13.252Z,93.79
2017-10-24T01:43:53.829Z,93.88
2017-10-24T01:44:34.428Z,93.5
2017-10-24T01:45:14.932Z,94.07
2017-10-24T01:45:55.460Z,93.88
2017-10-24T01:46:35.968Z,93.98
2017-10-24T01:47:16.539Z,94.17
2017-10-24T01:47:57.087Z,93.6
2017-10-24T01:48:37.611Z,93.4
2017-10-24T01:49:18.156Z,93.6
2017-10-24T01:49:58.720Z,93.12
2017-10-24T01:50:39.208Z,93.4
2017-10-24T01:51:19.779Z,93.21
2017-10-24T01:52:00.285Z,93.5
2017-10-24T01:52:40.800Z,93.5
2017-10-24T01:53:21.374Z,93.88
2017-10-24T01:54:01.861Z,94.26
2017-10-24T01:54:42.397Z,94.26
2017-10-24T01:55:22.939Z,93.88
2017-10-24T01:56:03.501Z,93.5
2017-10-24T01:56:44.001Z,93.6
2017-10-24T01:57:24.532Z,93.5
2017-10-24T01:58:05.035Z,93.31
2017-10-24T01:58:45.577Z,93.6
2017-10-24T01:59:26.113Z,94.17
2017-10-24T02:00:06.616Z,93.98
2017-10-24T02:00:47.166Z,93.88
2017-10-24T02:01:27.709Z,94.17
2017-10-24T02:02:08.184Z,93.79
2017-10-24T02:02:48.711Z,93.98
2017-10-24T02:03:29.281Z,94.17
2017-10-24T02:04:09.809Z,94.46
2017-10-24T02:04:50.341Z,93.98
2017-10-24T02:05:30.880Z,94.17
2017-10-24T02:06:11.402Z,94.55
2017-10-24T02:06:51.993Z,94.17
2017-10-24T02:07:32.480Z,93.79
2017-10-24T02:08:13.044Z,94.55
2017-10-24T02:08:53.541Z,94.17
2017-10-24T02:09:34.100Z,94.07
2017-10-24T02:10:14.652Z,94.55
2017-10-24T02:10:55.125Z,94.36
2017-10-24T02:11:35.655Z,94.46
2017-10-24T02:12:16.246Z,94.46
2017-10-24T02:12:56.776Z,94.17
2017-10-24T02:13:37.350Z,93.98
2017-10-24T02:14:17.872Z,94.17
2017-10-24T02:14:58.414Z,94.36
2017-10-24T02:15:38.957Z,94.46
2017-10-24T02:16:19.471Z,94.55
2017-10-24T02:16:59.991Z,95.12
2017-10-24T02:17:40.542Z,94.93
2017-10-24T02:18:21.047Z,94.65
2017-10-24T02:19:01.589Z,95.22
2017-10-24T02:19:42.134Z,95.03
2017-10-24T02:20:22.630Z,94.93
2017-10-24T02:21:03.199Z,95.22
2017-10-24T02:21:43.696Z,95.12
2017-10-24T02:22:24.263Z,95.32
2017-10-24T02:23:04.770Z,95.41
2017-10-24T02:23:45.401Z,95.32
2017-10-24T02:24:25.891Z,95.32
2017-10-24T02:25:06.425Z,95.32
2017-10-24T02:25:46.980Z,94.84
2017-10-24T02:26:27.465Z,95.41
2017-10-24T02:27:08.019Z,95.12
2017-10-24T02:27:48.534Z,95.12
2017-10-24T02:28:29.101Z,95.03
2017-10-24T02:29:09.611Z,94.84
2017-10-24T02:29:50.161Z,95.22
2017-10-24T02:30:30.710Z,95.22
2017-10-24T02:31:11.242Z,95.12
2017-10-24T02:31:51.783Z,94.84
2017-10-24T02:32:32.281Z,94.74
2017-10-24T02:33:12.780Z,94.74
2017-10-24T02:33:53.370Z,94.74
2017-10-24T02:34:33.906Z,94.46
2017-10-24T02:35:14.436Z,94.36
2017-10-24T02:35:54.975Z,94.84
2017-10-24T02:36:35.516Z,94.65
2017-10-24T02:37:16.079Z,94.46
2017-10-24T02:37:56.619Z,94.55
2017-10-24T02:38:37.163Z,94.65
2017-10-24T02:39:17.689Z,94.65
2017-10-24T02:39:58.189Z,94.65
2017-10-24T02:40:38.674Z,94.65
2017-10-24T02:41:19.231Z,94.65
2017-10-24T02:41:59.721Z,94.46
2017-10-24T02:42:40.266Z,94.46
2017-10-24T02:43:21.015Z,94.36
2017-10-24T02:44:01.482Z,94.46
2017-10-24T02:44:42.012Z,94.93
2017-10-24T02:45:22.603Z,94.65
2017-10-24T02:46:03.078Z,94.65
2017-10-24T02:46:43.636Z,94.55
2017-10-24T02:47:24.149Z,94.93
2017-10-24T02:48:04.723Z,94.46
2017-10-24T02:48:45.260Z,94.46
2017-10-24T02:49:25.815Z,94.46
2017-10-24T02:50:06.323Z,94.65
2017-10-24T02:50:46.867Z,94.65
2017-10-24T02:51:27.421Z,94.84
2017-10-24T02:52:07.954Z,94.74
2017-10-24T02:52:48.456Z,94.46
2017-10-24T02:53:29.030Z,94.26
2017-10-24T02:54:09.572Z,94.93
2017-10-24T02:54:50.077Z,94.74
2017-10-24T02:55:30.597Z,95.03
2017-10-24T02:56:11.183Z,94.84
2017-10-24T02:56:51.653Z,94.46
2017-10-24T02:57:32.187Z,94.07
2017-10-24T02:58:12.730Z,94.36
2017-10-24T02:58:53.262Z,93.98
2017-10-24T02:59:33.762Z,93.88
2017-10-24T03:00:14.337Z,94.26
2017-10-24T03:00:54.870Z,94.17
2017-10-24T03:01:35.407Z,94.36
2017-10-24T03:02:15.957Z,94.84
2017-10-24T03:02:56.613Z,94.84
2017-10-24T03:03:37.217Z,94.84
2017-10-24T03:04:17.705Z,94.74
2017-10-24T03:04:58.217Z,94.74
2017-10-24T03:05:38.782Z,94.84
2017-10-24T03:06:19.279Z,94.65
2017-10-24T03:06:59.806Z,94.55
2017-10-24T03:07:40.356Z,94.65
2017-10-24T03:08:20.873Z,94.65
2017-10-24T03:09:01.444Z,95.12
2017-10-24T03:09:41.965Z,94.17
2017-10-24T03:10:22.556Z,94.84
2017-10-24T03:11:03.067Z,94.46
2017-10-24T03:11:44.391Z,94.46
2017-10-24T03:12:24.986Z,94.55
2017-10-24T03:13:05.468Z,94.55
2017-10-24T03:13:46.019Z,94.65
2017-10-24T03:14:26.556Z,94.26
2017-10-24T03:15:07.233Z,94.84
2017-10-24T03:15:47.721Z,94.26
2017-10-24T03:16:28.364Z,94.93
2017-10-24T03:17:08.808Z,94.55
2017-10-24T03:17:49.398Z,94.93
2017-10-24T03:18:29.879Z,94.46
2017-10-24T03:19:10.478Z,94.84
2017-10-24T03:19:50.965Z,94.46
2017-10-24T03:20:31.575Z,94.46
2017-10-24T03:21:12.118Z,94.55
2017-10-24T03:21:52.581Z,94.55
2017-10-24T03:22:33.149Z,94.46
2017-10-24T03:23:13.663Z,94.55
2017-10-24T03:23:54.187Z,94.65
2017-10-24T03:24:34.737Z,94.12
2017-10-24T03:25:15.293Z,94.21
2017-10-24T03:25:55.819Z,93.93
2017-10-24T03:26:36.286Z,93.64
2017-10-24T03:27:16.864Z,93.84
2017-10-24T03:27:57.391Z,93.93
2017-10-24T03:28:37.908Z,93.84
2017-10-24T03:29:18.440Z,93.74
2017-10-24T03:29:58.914Z,93.84
2017-10-24T03:30:39.422Z,93.26
2017-10-24T03:31:19.985Z,94.31
2017-10-24T03:32:00.490Z,94.21
2017-10-24T03:32:41.040Z,94.02
2017-10-24T03:33:21.571Z,94.21
2017-10-24T03:34:02.072Z,93.93
2017-10-24T03:34:42.627Z,93.35
2017-10-24T03:35:23.145Z,93.16
2017-10-24T03:36:03.668Z,93.16
2017-10-24T03:36:44.226Z,93.55
2017-10-24T03:37:24.779Z,93.64
2017-10-24T03:38:05.297Z,93.26
2017-10-24T03:38:45.832Z,93.45
2017-10-24T03:39:26.390Z,93.45
2017-10-24T03:40:06.947Z,93.45
2017-10-24T03:40:47.403Z,93.45
2017-10-24T03:41:27.934Z,93.64
2017-10-24T03:42:08.476Z,93.55
2017-10-24T03:42:49.025Z,93.16
2017-10-24T03:43:29.580Z,93.64
2017-10-24T03:44:10.108Z,93.16
2017-10-24T03:44:50.642Z,93.45
2017-10-24T03:45:31.162Z,93.16
2017-10-24T03:46:11.704Z,93.45
2017-10-24T03:46:52.219Z,93.45
2017-10-24T03:47:32.775Z,93.74
2017-10-24T03:48:13.388Z,93.16
2017-10-24T03:48:53.873Z,93.45
2017-10-24T03:49:34.450Z,93.64
2017-10-24T03:50:14.971Z,93.45
2017-10-24T03:50:55.507Z,93.4
2017-10-24T03:51:36.013Z,93.55
2017-10-24T03:52:16.519Z,93.4
2017-10-24T03:52:57.049Z,93.69
2017-10-24T03:53:37.624Z,94.17
2017-10-24T03:54:18.120Z,93.98
2017-10-24T03:54:58.679Z,94.17
2017-10-24T03:55:39.193Z,93.98
2017-10-24T03:56:19.709Z,93.79
2017-10-24T03:57:00.225Z,94.07
2017-10-24T03:57:40.793Z,93.98
2017-10-24T03:58:21.319Z,93.98
2017-10-24T03:59:01.844Z,93.88
2017-10-24T03:59:42.399Z,93.6
2017-10-24T04:00:22.929Z,93.69
2017-10-24T04:01:03.465Z,93.79
2017-10-24T04:01:44.041Z,94.07
2017-10-24T04:02:24.609Z,94.07
2017-10-24T04:03:05.121Z,94.07
2017-10-24T04:03:45.619Z,93.88
2017-10-24T04:04:26.225Z,93.79
2017-10-24T04:05:06.769Z,93.88
2017-10-24T04:05:47.259Z,93.69
2017-10-24T04:06:27.771Z,93.98
2017-10-24T04:07:08.373Z,93.21
2017-10-24T04:07:48.901Z,93.64
2017-10-24T04:08:29.419Z,93.4
2017-10-24T04:09:09.991Z,93.16
2017-10-24T04:09:50.495Z,93.55
2017-10-24T04:10:30.993Z,93.55
2017-10-24T04:11:11.563Z,93.55
2017-10-24T04:11:52.059Z,93.16
2017-10-24T04:12:32.572Z,93.12
2017-10-24T04:13:13.121Z,93.16
2017-10-24T04:13:53.634Z,92.74
2017-10-24T04:14:34.187Z,93.4
2017-10-24T04:15:14.721Z,93.12
2017-10-24T04:15:55.287Z,92.93
2017-10-24T04:16:35.776Z,93.4
2017-10-24T04:17:16.289Z,93.16
2017-10-24T04:17:56.844Z,93.21
2017-10-24T04:18:37.348Z,93.21
2017-10-24T04:19:17.932Z,93.21
2017-10-24T04:19:58.477Z,93.4
2017-10-24T04:20:38.933Z,93.5
2017-10-24T04:21:19.478Z,92.74
2017-10-24T04:22:00.011Z,92.83
2017-10-24T04:22:40.560Z,93.31
2017-10-24T04:23:21.117Z,93.5
2017-10-24T04:24:01.647Z,93.4
2017-10-24T04:24:42.174Z,93.21
2017-10-24T04:25:22.692Z,93.5
2017-10-24T04:26:03.204Z,94.46
2017-10-24T04:26:43.795Z,93.6
2017-10-24T04:27:24.245Z,93.6
2017-10-24T04:28:04.831Z,93.21
2017-10-24T04:28:45.344Z,93.88
2017-10-24T04:29:25.881Z,93.5
2017-10-24T04:30:06.368Z,93.5
2017-10-24T04:30:46.917Z,93.4
2017-10-24T04:31:27.475Z,93.88
2017-10-24T04:32:08.024Z,93.4
2017-10-24T04:32:48.529Z,93.4
2017-10-24T04:33:29.084Z,93.4
2017-10-24T04:34:09.621Z,93.5
2017-10-24T04:34:50.137Z,93.6
2017-10-24T04:35:30.732Z,93.5
2017-10-24T04:36:11.265Z,93.4
2017-10-24T04:36:51.814Z,93.21
2017-10-24T04:37:32.312Z,93.12
2017-10-24T04:38:12.867Z,93.79
2017-10-24T04:38:53.441Z,93.4
2017-10-24T04:39:33.962Z,93.6
2017-10-24T04:40:14.563Z,94.46
2017-10-24T04:40:55.072Z,93.69
2017-10-24T04:41:35.645Z,93.98
2017-10-24T04:42:16.167Z,93.88
2017-10-24T04:42:56.722Z,94.26
2017-10-24T04:43:37.342Z,93.88
2017-10-24T04:44:17.874Z,94.26
2017-10-24T04:44:58.328Z,94.17
2017-10-24T04:45:38.953Z,94.07
2017-10-24T04:46:19.453Z,93.79
2017-10-24T04:46:59.962Z,94.07
2017-10-24T04:47:40.580Z,93.98
2017-10-24T04:48:21.125Z,93.98
2017-10-24T04:49:01.655Z,93.98
2017-10-24T04:49:42.207Z,94.07
2017-10-24T04:50:22.780Z,94.26
2017-10-24T04:51:03.314Z,94.36
2017-10-24T04:51:43.800Z,93.88
2017-10-24T04:52:24.511Z,93.98
2017-10-24T04:53:04.929Z,94.07
2017-10-24T04:53:45.468Z,93.88
2017-10-24T04:54:26.002Z,93.6
2017-10-24T04:55:06.513Z,94.07
2017-10-24T04:55:47.068Z,94.17
2017-10-24T04:56:27.567Z,93.88
2017-10-24T04:57:08.232Z,93.98
2017-10-24T04:57:48.823Z,94.26
2017-10-24T04:58:29.317Z,93.79
2017-10-24T04:59:09.892Z,94.26
2017-10-24T04:59:50.573Z,93.88
2017-10-24T05:00:31.032Z,94.17
2017-10-24T05:01:11.673Z,93.88
2017-10-24T05:01:52.242Z,93.21
2017-10-24T05:02:32.940Z,94.17
2017-10-24T05:04:47.230Z,93.64
2017-10-24T05:05:27.721Z,93.45
2017-10-24T05:06:08.253Z,93.55
2017-10-24T05:06:48.809Z,93.45
2017-10-24T05:07:29.426Z,93.16
2017-10-24T05:08:10.095Z,93.26
2017-10-24T05:08:50.623Z,92.78
2017-10-24T05:09:31.207Z,93.64
2017-10-24T05:10:11.776Z,93.55
2017-10-24T05:10:52.481Z,93.35
2017-10-24T05:11:33.159Z,93.26
2017-10-24T05:12:13.543Z,93.26
2017-10-24T05:12:54.059Z,92.78
2017-10-24T05:13:34.675Z,92.78
2017-10-24T05:14:15.159Z,92.97
2017-10-24T05:14:55.716Z,92.78
2017-10-24T05:15:36.267Z,92.88
2017-10-24T05:16:16.781Z,92.97
2017-10-24T05:16:57.320Z,92.78
2017-10-24T05:17:37.863Z,93.26
2017-10-24T05:18:18.374Z,93.45
2017-10-24T05:18:58.878Z,92.69
2017-10-24T05:19:39.495Z,92.59
2017-10-24T05:20:19.997Z,92.4
2017-10-24T05:21:00.555Z,93.07
2017-10-24T05:21:41.128Z,93.07
2017-10-24T05:22:21.601Z,93.16
2017-10-24T05:23:02.177Z,92.88
2017-10-24T05:23:42.674Z,93.35
2017-10-24T05:24:23.237Z,92.88
2017-10-24T05:25:03.801Z,92.92
2017-10-24T05:25:44.300Z,93.07
2017-10-24T05:26:24.868Z,92.97
2017-10-24T05:27:05.388Z,93.02
2017-10-24T05:27:45.947Z,92.92
2017-10-24T05:28:26.472Z,93.21
2017-10-24T05:29:07.010Z,93.21
2017-10-24T05:29:47.538Z,93.3
2017-10-24T05:30:28.097Z,93.21
2017-10-24T05:31:08.616Z,93.59
2017-10-24T05:31:49.210Z,94.55
2017-10-24T05:32:29.677Z,92.83
2017-10-24T05:33:10.264Z,93.3
2017-10-24T05:33:50.775Z,92.92
2017-10-24T05:34:31.342Z,92.83
2017-10-24T05:35:11.876Z,93.5
2017-10-24T05:35:52.401Z,93.21
2017-10-24T05:36:32.918Z,93.59
2017-10-24T05:37:13.463Z,93.5
2017-10-24T05:37:53.978Z,93.4
2017-10-24T05:38:34.581Z,93.59
2017-10-24T05:39:15.111Z,93.59
2017-10-24T05:39:55.699Z,93.88
2017-10-24T05:40:36.267Z,93.12
2017-10-24T05:41:16.757Z,94.55
2017-10-24T05:41:57.306Z,93.69
2017-10-24T05:42:37.854Z,93.83
2017-10-24T05:43:18.398Z,94.26
2017-10-24T05:43:58.891Z,94.93
2017-10-24T05:44:39.500Z,94.17
2017-10-24T05:45:20.027Z,94.17
2017-10-24T05:46:00.528Z,94.07
2017-10-24T05:46:41.044Z,93.16
2017-10-24T05:47:21.545Z,93.5
2017-10-24T05:48:02.106Z,93.35
2017-10-24T05:48:42.669Z,95.36
2017-10-24T05:49:23.196Z,99.38
2017-10-24T05:50:03.830Z,99.77
2017-10-24T05:50:44.345Z,99.29
2017-10-24T05:51:24.883Z,99.99
2017-10-24T05:52:05.431Z,99.99
2017-10-24T05:52:45.931Z,99.99
2017-10-24T05:53:26.464Z,99.29
2017-10-24T05:54:07.025Z,96.7
2017-10-24T05:54:47.584Z,94.6
2017-10-24T05:55:28.143Z,93.74
2017-10-24T05:56:08.692Z,93.54
2017-10-24T05:56:49.163Z,92.58
2017-10-24T05:57:29.743Z,92.68
2017-10-24T05:58:10.435Z,92.58
2017-10-24T05:58:50.796Z,92.49
2017-10-24T05:59:31.351Z,91.92
2017-10-24T06:00:11.885Z,91.53
2017-10-24T06:00:52.367Z,91.63
2017-10-24T06:01:32.902Z,91.34
2017-10-24T06:02:13.484Z,91.44
2017-10-24T06:02:53.997Z,91.63
2017-10-24T06:03:34.496Z,91.15
2017-10-24T06:04:15.161Z,90.86
2017-10-24T06:04:55.656Z,90.48
2017-10-24T06:05:36.267Z,90.48
2017-10-24T06:06:16.861Z,90.39
2017-10-24T06:06:57.378Z,90.39
2017-10-24T06:07:37.954Z,90.29
2017-10-24T06:08:18.476Z,90.86
2017-10-24T06:08:59.008Z,90.33
2017-10-24T06:09:39.580Z,90.33
2017-10-24T06:10:20.088Z,90.48
2017-10-24T06:11:00.640Z,90.19
2017-10-24T06:11:41.158Z,91.15
2017-10-24T06:12:21.727Z,90.53
2017-10-24T06:13:02.285Z,90.53
2017-10-24T06:13:42.830Z,90.53
2017-10-24T06:14:23.345Z,90.62
2017-10-24T06:15:03.839Z,97.23
2017-10-24T06:15:44.425Z,99.99
2017-10-24T06:16:24.965Z,99.99
2017-10-24T06:17:05.560Z,99.99
2017-10-24T06:17:46.071Z,99.99
2017-10-24T06:18:26.588Z,99.99
2017-10-24T06:19:07.220Z,99.99
2017-10-24T06:19:47.725Z,99.99
2017-10-24T06:20:28.224Z,99.99
2017-10-24T06:21:08.723Z,99.99
2017-10-24T06:21:49.296Z,99.99
2017-10-24T06:22:29.889Z,99.99
2017-10-24T06:23:10.420Z,99.99
2017-10-24T06:23:50.924Z,99.99
2017-10-24T06:24:31.506Z,99.99
2017-10-24T06:25:11.973Z,99.99
2017-10-24T06:25:52.558Z,99.99
2017-10-24T06:26:33.098Z,99.99
2017-10-24T06:27:13.709Z,99.99
2017-10-24T06:27:54.211Z,99.99
2017-10-24T06:28:34.706Z,97.18
2017-10-24T06:29:15.499Z,94.31
2017-10-24T06:29:56.563Z,92.49
2017-10-24T06:30:37.196Z,92.1
2017-10-24T06:31:17.871Z,91.05
2017-10-24T06:31:58.977Z,99.99
2017-10-24T06:33:47.337Z,99.99
2017-10-24T06:34:27.882Z,99.99
2017-10-24T06:35:08.436Z,99.99
2017-10-24T06:35:49.024Z,99.99
2017-10-24T06:36:29.549Z,99.99
2017-10-24T06:37:10.127Z,99.99
2017-10-24T06:37:50.660Z,99.99
2017-10-24T06:38:31.331Z,99.99
2017-10-24T06:39:12.180Z,99.99
2017-10-24T06:39:52.988Z,99.91
2017-10-24T06:40:33.561Z,99.99
2017-10-24T06:41:14.078Z,99.99
2017-10-24T06:41:54.598Z,99.99
2017-10-24T06:42:35.098Z,99.99
2017-10-24T06:43:15.759Z,99.99
2017-10-24T06:43:56.232Z,99.99
2017-10-24T06:44:36.737Z,99.99
2017-10-24T06:45:17.289Z,99.99
2017-10-24T06:45:57.922Z,98.86
2017-10-24T06:46:38.458Z,94.74
2017-10-24T06:47:19.068Z,92.34
2017-10-24T06:47:59.576Z,91.38
2017-10-24T06:48:40.118Z,91.09
2017-10-24T06:49:20.724Z,90.14
2017-10-24T06:50:01.233Z,90.23
2017-10-24T06:50:41.734Z,90.52
2017-10-24T06:51:22.259Z,89.37
2017-10-24T06:52:02.816Z,89.56
2017-10-24T06:52:43.348Z,88.31
2017-10-24T06:53:23.954Z,87.84
2017-10-24T06:54:04.427Z,88.7
2017-10-24T06:54:44.998Z,88.51
2017-10-24T06:55:25.550Z,88.41
2017-10-24T06:56:06.078Z,88.02
2017-10-24T06:56:46.609Z,87.74
2017-10-24T06:57:27.113Z,88.22
2017-10-24T06:58:07.684Z,87.7
2017-10-24T06:58:48.182Z,86.93
2017-10-24T06:59:28.734Z,87.41
2017-10-24T07:00:09.252Z,88.17
2017-10-24T07:00:49.833Z,87.79
2017-10-24T07:01:30.366Z,87.41
2017-10-24T07:02:10.910Z,88.08
2017-10-24T07:02:51.465Z,88.75
2017-10-24T07:03:32.007Z,87.98
2017-10-24T07:04:12.567Z,89.13
2017-10-24T07:04:53.110Z,88.84
2017-10-24T07:05:33.652Z,89.42
2017-10-24T07:06:14.158Z,89.13
2017-10-24T07:06:54.714Z,90.09
2017-10-24T07:07:35.285Z,89.32
2017-10-24T07:08:15.852Z,99.53
2017-10-24T07:08:56.396Z,99.99
2017-10-24T07:09:36.930Z,99.99
2017-10-24T07:10:17.451Z,99.99
2017-10-24T07:10:58.030Z,99.99
2017-10-24T07:11:38.598Z,99.99
2017-10-24T07:12:19.121Z,99.44
2017-10-24T07:12:59.669Z,99.99
2017-10-24T07:13:40.241Z,99.99
2017-10-24T07:14:20.773Z,99.99
2017-10-24T07:15:01.348Z,99.99
2017-10-24T07:15:41.885Z,99.99
2017-10-24T07:16:22.439Z,99.99
2017-10-24T07:17:03.022Z,99.99
2017-10-24T07:17:43.557Z,99.99
2017-10-24T07:18:24.142Z,99.99
2017-10-24T07:19:04.692Z,99.99
2017-10-24T07:19:45.214Z,94.69
2017-10-24T07:20:25.810Z,91.14
2017-10-24T07:21:06.400Z,91.42
2017-10-24T07:21:46.930Z,91.42
2017-10-24T07:22:27.473Z,89.51
2017-10-24T07:23:07.996Z,99.99
2017-10-24T07:23:48.523Z,99.99
2017-10-24T07:24:29.073Z,99.99
2017-10-24T07:25:09.610Z,99.99
2017-10-24T07:25:50.161Z,99.99
2017-10-24T07:26:30.721Z,99.99
2017-10-24T07:27:11.255Z,99.99
2017-10-24T07:27:51.796Z,99.99
2017-10-24T07:28:32.339Z,99.99
2017-10-24T07:29:13.040Z,99.99
2017-10-24T07:29:53.569Z,99.99
2017-10-24T07:30:34.088Z,99.99
2017-10-24T07:31:14.586Z,99.99
2017-10-24T07:31:55.171Z,99.99
2017-10-24T07:32:35.734Z,99.99
2017-10-24T07:33:16.216Z,99.99
2017-10-24T07:33:56.802Z,99.99
2017-10-24T07:34:37.308Z,99.99
2017-10-24T07:35:17.852Z,99.99
2017-10-24T07:35:58.385Z,94.93
2017-10-24T07:36:38.908Z,96.27
2017-10-24T07:37:19.433Z,95.12
2017-10-24T07:37:59.942Z,97.66
2017-10-24T07:38:40.481Z,99.05
2017-10-24T07:39:21.030Z,95.41
2017-10-24T07:40:01.623Z,94.74
2017-10-24T07:40:42.124Z,90.99
2017-10-24T07:41:22.710Z,87.63
2017-10-24T07:42:03.250Z,85.28
2017-10-24T07:42:43.772Z,84.52
2017-10-24T07:43:24.351Z,86.15
2017-10-24T07:44:04.923Z,87.68
2017-10-24T07:44:45.474Z,86.92
2017-10-24T07:45:26.201Z,86.15
2017-10-24T07:46:06.813Z,84.71
2017-10-24T07:46:47.376Z,86.72
2017-10-24T07:47:27.919Z,86.34
2017-10-24T07:48:08.491Z,86.25
2017-10-24T07:48:49.073Z,85.28
2017-10-24T07:49:29.632Z,85.96
2017-10-24T07:50:10.241Z,86.34
2017-10-24T07:50:50.758Z,86.05
2017-10-24T07:51:31.275Z,85.58
2017-10-24T07:52:11.883Z,86.25
2017-10-24T07:52:52.431Z,87.4
2017-10-24T07:53:32.971Z,87.59
2017-10-24T07:54:13.498Z,90.85
2017-10-24T07:54:54.055Z,94.59
2017-10-24T07:55:34.604Z,95.98
2017-10-24T07:56:15.141Z,98.1
2017-10-24T07:56:55.684Z,99.15
2017-10-24T07:57:36.184Z,96.27
2017-10-24T07:58:16.684Z,97.42
2017-10-24T07:58:57.221Z,97.76
2017-10-24T07:59:37.781Z,98.14
2017-10-24T08:00:18.341Z,97.28
2017-10-24T08:00:58.898Z,92.48
2017-10-24T08:01:39.390Z,93.15
2017-10-24T08:02:19.959Z,98.19
2017-10-24T08:03:00.470Z,99.82
2017-10-24T08:03:41.023Z,99.92
2017-10-24T08:04:21.586Z,99.99
2017-10-24T08:05:02.109Z,99.99
2017-10-24T08:05:42.702Z,99.99
2017-10-24T08:06:23.232Z,99.99
2017-10-24T08:07:03.805Z,99.99
2017-10-24T08:07:44.348Z,99.99
2017-10-24T08:08:24.860Z,98.96
2017-10-24T08:09:05.442Z,99.99
2017-10-24T08:09:45.922Z,99.99
2017-10-24T08:10:26.527Z,99.97
2017-10-24T08:11:07.088Z,99.99
2017-10-24T08:11:47.826Z,98.63
2017-10-24T08:12:28.513Z,95.45
2017-10-24T08:13:09.108Z,99.3
2017-10-24T08:13:50.576Z,99.99
2017-10-24T08:14:31.124Z,99.99
2017-10-24T08:15:11.624Z,98.53
2017-10-24T08:15:52.186Z,96.89
2017-10-24T08:16:32.723Z,93.54
2017-10-24T08:17:13.297Z,93.44
2017-10-24T08:17:53.808Z,94.49
2017-10-24T08:18:34.303Z,93.05
2017-10-24T08:19:14.870Z,92.38
2017-10-24T08:19:55.414Z,90.37
2017-10-24T08:20:35.929Z,91.47
2017-10-24T08:21:16.469Z,90.66
2017-10-24T08:21:57.080Z,90.8
2017-10-24T08:22:37.633Z,90.08
2017-10-24T08:23:18.309Z,89.46
2017-10-24T08:23:58.807Z,87.05
2017-10-24T08:24:39.402Z,89.94
2017-10-24T08:25:19.908Z,90.42
2017-10-24T08:26:00.471Z,90.52
2017-10-24T08:26:41.017Z,89.84
2017-10-24T08:27:21.527Z,90.99
2017-10-24T08:28:02.088Z,90.8
2017-10-24T08:28:42.603Z,90.22
2017-10-24T08:29:23.156Z,89.55
2017-10-24T08:30:03.688Z,90.7
2017-10-24T08:30:44.253Z,89.32
2017-10-24T08:31:24.776Z,89.89
2017-10-24T08:32:05.272Z,89.32
2017-10-24T08:32:45.809Z,87.92
2017-10-24T08:33:26.387Z,88.59
2017-10-24T08:34:06.909Z,88.31
2017-10-24T08:34:47.467Z,86.19
2017-10-24T08:35:28.000Z,87.73
2017-10-24T08:36:08.544Z,88.59
2017-10-24T08:36:49.018Z,88.21
2017-10-24T08:37:29.568Z,88.79
2017-10-24T08:38:10.114Z,88.88
2017-10-24T08:38:50.683Z,88.49
2017-10-24T08:39:31.225Z,83.98
2017-10-24T08:40:11.719Z,84.75
2017-10-24T08:40:52.287Z,89.07
2017-10-24T08:41:32.779Z,89.89
2017-10-24T08:42:13.354Z,90.56
2017-10-24T08:42:53.825Z,88.93
2017-10-24T08:43:34.370Z,88.45
2017-10-24T08:44:14.922Z,90.37
2017-10-24T08:44:55.461Z,89.98
2017-10-24T08:45:35.977Z,92.91
2017-10-24T08:46:16.525Z,94.11
2017-10-24T08:46:57.086Z,93.49